createdAt,value
2017-04-28T00:02:06.741Z,7.53
2017-04-28T00:04:36.230Z,8.42
2017-04-28T00:07:04.515Z,7.85
2017-04-28T00:09:32.813Z,7.55
2017-04-28T00:12:04.945Z,8.17
2017-04-28T00:14:33.233Z,8.63
2017-04-28T00:17:01.516Z,8.58
2017-04-28T00:19:29.832Z,9.08
2017-04-28T00:21:58.121Z,8.48
2017-04-28T00:24:26.427Z,7.40
2017-04-28T00:26:54.726Z,8.40
2017-04-28T00:29:24.461Z,8.18
2017-04-28T00:31:57.609Z,9.08
2017-04-28T00:34:25.885Z,8.03
2017-04-28T00:36:55.080Z,8.40
2017-04-28T00:39:24.061Z,8.48
2017-04-28T00:41:52.365Z,8.63
2017-04-28T00:44:21.091Z,11.23
2017-04-28T00:46:50.308Z,10.88
2017-04-28T00:49:18.606Z,11.48
2017-04-28T00:51:46.894Z,10.40
2017-04-28T00:54:16.117Z,10.18
2017-04-28T00:56:44.397Z,10.73
2017-04-28T00:59:13.060Z,10.83
2017-04-28T01:01:41.340Z,11.23
2017-04-28T01:04:09.645Z,9.40
2017-04-28T01:06:40.065Z,10.33
2017-04-28T01:09:09.108Z,10.40
2017-04-28T01:11:37.389Z,11.58
2017-04-28T01:14:06.189Z,12.20
2017-04-28T01:16:34.778Z,10.78
2017-04-28T01:19:03.057Z,13.02
2017-04-28T01:21:31.365Z,11.35
2017-04-28T01:23:59.656Z,11.00
2017-04-28T01:26:29.066Z,11.68
2017-04-28T01:28:57.365Z,11.18
2017-04-28T01:31:25.651Z,11.07
2017-04-28T01:33:53.993Z,12.22
2017-04-28T01:36:22.296Z,10.30
2017-04-28T01:38:51.394Z,11.47
2017-04-28T01:41:20.050Z,11.03
2017-04-28T01:43:48.327Z,12.45
2017-04-28T01:46:16.618Z,12.93
2017-04-28T01:48:45.293Z,12.50
2017-04-28T01:51:14.317Z,13.90
2017-04-28T01:53:42.606Z,13.03
2017-04-28T01:56:11.291Z,13.23
2017-04-28T01:58:39.567Z,11.87
2017-04-28T02:01:07.893Z,12.85
2017-04-28T02:03:36.655Z,14.12
2017-04-28T02:06:04.955Z,13.63
2017-04-28T02:08:33.258Z,13.87
2017-04-28T02:11:01.918Z,12.77
2017-04-28T02:13:30.540Z,13.57
2017-04-28T02:15:58.842Z,12.22
2017-04-28T02:18:27.160Z,14.68
2017-04-28T02:20:55.457Z,14.38
2017-04-28T02:23:23.753Z,14.97
2017-04-28T02:25:52.822Z,13.67
2017-04-28T02:28:21.202Z,13.18
2017-04-28T02:30:49.475Z,13.87
2017-04-28T02:33:17.762Z,14.17
2017-04-28T02:35:46.178Z,15.75
2017-04-28T02:38:14.470Z,12.80
2017-04-28T02:40:43.182Z,13.68
2017-04-28T02:43:11.510Z,13.67
2017-04-28T02:45:39.792Z,13.08
2017-04-28T02:48:08.084Z,14.12
2017-04-28T02:50:36.776Z,13.93
2017-04-28T02:53:05.057Z,14.72
2017-04-28T02:55:34.268Z,15.88
2017-04-28T02:58:03.634Z,14.22
2017-04-28T03:00:31.937Z,12.75
2017-04-28T03:03:01.021Z,14.75
2017-04-28T03:05:29.343Z,14.80
2017-04-28T03:07:57.633Z,12.97
2017-04-28T03:10:25.964Z,13.88
2017-04-28T03:12:55.401Z,14.87
2017-04-28T03:15:24.202Z,14.98
2017-04-28T03:17:52.765Z,13.55
2017-04-28T03:20:21.057Z,16.60
2017-04-28T03:22:50.277Z,13.27
2017-04-28T03:25:19.248Z,14.98
2017-04-28T03:27:47.548Z,15.10
2017-04-28T03:30:15.884Z,13.85
2017-04-28T03:32:44.207Z,14.37
2017-04-28T03:35:12.524Z,14.73
2017-04-28T03:37:41.395Z,12.72
2017-04-28T03:40:09.737Z,15.13
2017-04-28T03:42:38.019Z,12.97
2017-04-28T03:45:06.319Z,16.08
2017-04-28T03:47:35.057Z,15.88
2017-04-28T03:50:03.356Z,17.23
2017-04-28T03:52:31.653Z,17.30
2017-04-28T03:54:59.991Z,18.00
2017-04-28T03:57:28.289Z,16.95
2017-04-28T03:59:56.606Z,17.45
2017-04-28T04:02:24.949Z,18.17
2017-04-28T04:04:53.286Z,19.53
2017-04-28T04:07:22.550Z,17.40
2017-04-28T04:09:51.361Z,20.97
2017-04-28T04:12:19.641Z,19.12
2017-04-28T04:14:48.260Z,16.72
2017-04-28T04:17:16.544Z,17.58
2017-04-28T04:19:45.798Z,18.05
2017-04-28T04:22:14.560Z,18.63
2017-04-28T04:24:42.848Z,18.70
2017-04-28T04:27:11.140Z,18.08
2017-04-28T04:29:39.468Z,19.00
2017-04-28T04:32:08.399Z,19.57
2017-04-28T04:34:37.396Z,19.12
2017-04-28T04:37:05.930Z,20.27
2017-04-28T04:39:35.187Z,18.42
2017-04-28T04:42:03.478Z,19.87
2017-04-28T04:44:32.638Z,19.73
2017-04-28T04:47:01.761Z,20.05
2017-04-28T04:49:30.691Z,20.65
2017-04-28T04:51:59.035Z,19.20
2017-04-28T04:54:27.322Z,20.48
2017-04-28T04:56:55.601Z,20.07
2017-04-28T04:59:23.965Z,18.03
2017-04-28T05:01:52.997Z,20.42
2017-04-28T05:04:21.289Z,18.90
2017-04-28T05:06:49.600Z,21.23
2017-04-28T05:09:17.877Z,19.07
2017-04-28T05:11:47.046Z,22.28
2017-04-28T05:14:15.633Z,19.12
2017-04-28T05:16:43.936Z,20.05
2017-04-28T05:19:12.224Z,21.53
2017-04-28T05:21:40.569Z,21.27
2017-04-28T05:24:09.073Z,20.80
2017-04-28T05:26:38.165Z,21.55
2017-04-28T05:29:06.509Z,21.23
2017-04-28T05:31:34.807Z,19.48
2017-04-28T05:34:03.590Z,21.27
2017-04-28T05:36:33.227Z,19.48
2017-04-28T05:39:01.508Z,21.20
2017-04-28T05:41:29.828Z,19.17
2017-04-28T05:43:58.914Z,20.28
2017-04-28T05:46:27.196Z,20.42
2017-04-28T05:48:55.843Z,21.02
2017-04-28T05:51:24.845Z,20.13
2017-04-28T05:53:53.885Z,21.27
2017-04-28T05:56:23.406Z,19.42
2017-04-28T05:58:52.569Z,18.02
2017-04-28T06:01:20.866Z,20.75
2017-04-28T06:03:49.409Z,19.62
2017-04-28T06:06:18.450Z,18.25
2017-04-28T06:08:46.744Z,21.15
2017-04-28T06:11:15.612Z,18.83
2017-04-28T06:13:49.856Z,18.58
2017-04-28T06:16:19.353Z,16.23
2017-04-28T06:18:48.757Z,19.17
2017-04-28T06:21:17.053Z,17.98
2017-04-28T06:23:46.826Z,18.30
2017-04-28T06:26:15.133Z,18.77
2017-04-28T06:28:43.630Z,17.85
2017-04-28T06:31:12.473Z,19.88
2017-04-28T06:33:40.780Z,19.57
2017-04-28T06:36:09.255Z,16.67
2017-04-28T06:38:37.573Z,17.97
2017-04-28T06:41:07.200Z,17.78
2017-04-28T06:43:36.578Z,18.37
2017-04-28T06:46:04.903Z,17.87
2017-04-28T06:48:33.189Z,17.55
2017-04-28T06:51:01.468Z,18.12
2017-04-28T06:53:30.000Z,16.78
2017-04-28T06:55:59.143Z,17.62
2017-04-28T06:58:27.442Z,17.18
2017-04-28T07:00:56.534Z,18.17
2017-04-28T07:03:25.610Z,18.03
2017-04-28T07:05:55.005Z,17.82
2017-04-28T07:08:23.501Z,18.43
2017-04-28T07:10:51.788Z,18.98
2017-04-28T07:13:20.070Z,19.83
2017-04-28T07:15:48.435Z,19.73
2017-04-28T07:18:16.725Z,19.33
2017-04-28T07:20:45.010Z,19.18
2017-04-28T07:23:13.585Z,18.15
2017-04-28T07:25:41.879Z,19.42
2017-04-28T07:28:11.000Z,18.63
2017-04-28T07:30:39.430Z,20.47
2017-04-28T07:33:07.711Z,20.43
2017-04-28T07:35:36.001Z,19.42
2017-04-28T07:38:04.925Z,19.92
2017-04-28T07:40:33.234Z,18.95
2017-04-28T07:43:01.525Z,21.63
2017-04-28T07:45:29.894Z,21.58
2017-04-28T07:47:59.603Z,23.47
2017-04-28T07:50:27.933Z,22.65
2017-04-28T07:52:57.764Z,20.35
2017-04-28T07:55:26.050Z,23.25
2017-04-28T07:57:54.379Z,23.87
2017-04-28T08:00:23.869Z,23.48
2017-04-28T08:02:52.153Z,21.72
2017-04-28T08:05:21.793Z,24.10
2017-04-28T08:07:51.412Z,21.93
2017-04-28T08:10:19.697Z,22.82
2017-04-28T08:12:48.327Z,23.05
2017-04-28T08:15:16.604Z,22.57
2017-04-28T08:17:45.814Z,22.98
2017-04-28T08:20:15.056Z,22.42
2017-04-28T08:22:43.351Z,19.73
2017-04-28T08:25:11.633Z,23.00
2017-04-28T08:27:40.009Z,23.02
2017-04-28T08:30:08.304Z,22.05
2017-04-28T08:32:36.590Z,21.67
2017-04-28T08:35:05.001Z,23.57
2017-04-28T08:37:33.360Z,22.42
2017-04-28T08:40:01.650Z,23.55
2017-04-28T08:42:30.055Z,24.78
2017-04-28T08:44:59.072Z,23.70
2017-04-28T08:47:27.368Z,23.18
2017-04-28T08:49:55.708Z,24.20
2017-04-28T08:52:24.034Z,22.40
2017-04-28T08:54:52.322Z,23.43
2017-04-28T08:57:20.640Z,22.57
2017-04-28T08:59:48.994Z,21.77
2017-04-28T09:02:18.321Z,23.68
2017-04-28T09:04:46.605Z,24.03
2017-04-28T09:07:15.952Z,23.50
2017-04-28T09:09:45.008Z,22.57
2017-04-28T09:12:13.304Z,22.35
2017-04-28T09:14:42.125Z,21.88
2017-04-28T09:17:10.420Z,23.15
2017-04-28T09:19:39.791Z,22.68
2017-04-28T09:22:08.104Z,21.93
2017-04-28T09:24:37.149Z,22.97
2017-04-28T09:27:05.797Z,21.73
2017-04-28T09:29:34.115Z,20.88
2017-04-28T09:32:02.399Z,20.83
2017-04-28T09:34:30.713Z,22.55
2017-04-28T09:36:59.826Z,21.52
2017-04-28T09:39:28.112Z,22.10
2017-04-28T09:41:56.408Z,22.58
2017-04-28T09:44:24.720Z,21.07
2017-04-28T09:46:53.031Z,21.50
2017-04-28T09:49:21.309Z,23.07
2017-04-28T09:51:49.584Z,21.50
2017-04-28T09:54:18.005Z,22.73
2017-04-28T09:56:46.380Z,21.27
2017-04-28T09:59:14.766Z,18.62
2017-04-28T10:01:44.056Z,17.95
2017-04-28T10:04:12.336Z,21.97
2017-04-28T10:06:40.717Z,21.13
2017-04-28T10:09:09.297Z,18.78
2017-04-28T10:11:37.677Z,19.23
2017-04-28T10:14:05.955Z,19.70
2017-04-28T10:16:34.277Z,19.40
2017-04-28T10:19:03.304Z,19.82
2017-04-28T10:21:31.581Z,19.67
2017-04-28T10:23:59.895Z,17.88
2017-04-28T10:26:28.184Z,19.15
2017-04-28T10:28:56.472Z,18.63
2017-04-28T10:31:24.884Z,18.83
2017-04-28T10:33:53.165Z,17.32
2017-04-28T10:36:21.458Z,18.77
2017-04-28T10:38:50.063Z,17.90
2017-04-28T10:41:18.348Z,20.56
2017-04-28T10:43:46.703Z,19.83
2017-04-28T10:46:14.980Z,24.42
2017-04-28T10:48:43.365Z,28.38
2017-04-28T10:51:11.737Z,19.07
2017-04-28T10:53:40.012Z,20.80
2017-04-28T10:56:08.397Z,20.23
2017-04-28T10:58:36.777Z,24.33
2017-04-28T11:01:05.153Z,20.00
2017-04-28T11:03:33.424Z,17.87
2017-04-28T11:06:01.696Z,22.47
2017-04-28T11:08:30.000Z,21.83
2017-04-28T11:10:58.280Z,21.38
2017-04-28T11:13:27.331Z,19.15
2017-04-28T11:15:55.708Z,19.47
2017-04-28T11:18:24.089Z,19.62
2017-04-28T11:20:52.469Z,18.75
2017-04-28T11:23:20.749Z,19.37
2017-04-28T11:25:49.031Z,19.82
2017-04-28T11:28:17.308Z,14.97
2017-04-28T11:30:45.587Z,23.00
2017-04-28T11:33:13.956Z,15.08
2017-04-28T11:35:42.342Z,17.62
2017-04-28T11:38:10.741Z,17.98
2017-04-28T11:40:39.088Z,32.73
2017-04-28T11:43:07.480Z,55.92
2017-04-28T11:45:35.858Z,32.22
2017-04-28T11:48:04.237Z,29.37
2017-04-28T11:50:32.613Z,22.42
2017-04-28T11:53:00.893Z,70.10
2017-04-28T11:55:30.141Z,27.14
2017-04-28T11:57:58.439Z,29.18
2017-04-28T12:00:26.728Z,19.58
2017-04-28T12:02:55.004Z,23.12
2017-04-28T12:05:23.301Z,24.02
2017-04-28T12:07:51.793Z,23.08
2017-04-28T12:10:20.073Z,21.27
2017-04-28T12:12:48.348Z,21.08
2017-04-28T12:15:16.625Z,22.23
2017-04-28T12:17:45.021Z,20.04
2017-04-28T12:20:13.308Z,19.72
2017-04-28T12:22:41.589Z,19.25
2017-04-28T12:25:09.864Z,18.37
2017-04-28T12:27:38.223Z,18.28
2017-04-28T12:30:06.916Z,18.60
2017-04-28T12:32:35.196Z,18.30
2017-04-28T12:35:03.568Z,15.62
2017-04-28T12:37:31.943Z,19.15
2017-04-28T12:40:00.229Z,23.62
2017-04-28T12:42:30.120Z,25.57
2017-04-28T12:44:58.401Z,20.85
2017-04-28T12:47:26.677Z,21.82
2017-04-28T12:49:54.972Z,18.32
2017-04-28T12:52:23.659Z,18.02
2017-04-28T12:54:52.028Z,20.00
2017-04-28T12:57:20.311Z,17.67
2017-04-28T12:59:48.589Z,18.12
2017-04-28T13:02:16.869Z,17.38
2017-04-28T13:04:45.148Z,17.23
2017-04-28T13:07:13.521Z,16.03
2017-04-28T13:09:41.901Z,16.90
2017-04-28T13:12:10.277Z,16.03
2017-04-28T13:14:38.565Z,16.87
2017-04-28T13:17:06.839Z,15.40
2017-04-28T13:19:35.116Z,12.82
2017-04-28T13:22:03.392Z,13.96
2017-04-28T13:24:31.762Z,12.93
2017-04-28T13:27:00.344Z,13.62
2017-04-28T13:29:28.621Z,13.47
2017-04-28T13:31:57.011Z,12.78
2017-04-28T13:34:25.389Z,13.77
2017-04-28T13:36:53.756Z,15.05
2017-04-28T13:39:22.036Z,13.87
2017-04-28T13:41:50.312Z,13.23
2017-04-28T13:44:18.692Z,14.53
2017-04-28T13:46:46.972Z,16.05
2017-04-28T13:49:15.301Z,16.52
2017-04-28T13:51:44.320Z,16.13
2017-04-28T13:54:12.597Z,17.02
2017-04-28T13:56:40.873Z,16.92
2017-04-28T13:59:09.148Z,16.63
2017-04-28T14:01:37.424Z,17.80
2017-04-28T14:04:05.725Z,22.07
2017-04-28T14:06:34.052Z,23.32
2017-04-28T14:09:03.071Z,15.48
2017-04-28T14:11:32.214Z,15.92
2017-04-28T14:14:00.573Z,17.15
2017-04-28T14:16:28.849Z,14.83
2017-04-28T14:18:57.140Z,17.77
2017-04-28T14:21:25.611Z,16.58
2017-04-28T14:23:53.939Z,16.80
2017-04-28T14:26:22.960Z,14.55
2017-04-28T14:28:51.264Z,18.02
2017-04-28T14:31:19.634Z,19.03
2017-04-28T14:33:47.912Z,19.12
2017-04-28T14:36:16.289Z,16.70
2017-04-28T14:38:44.563Z,20.60
2017-04-28T14:41:12.851Z,21.12
2017-04-28T14:43:41.439Z,26.80
2017-04-28T14:46:09.907Z,27.44
2017-04-28T14:48:38.202Z,19.85
2017-04-28T14:51:06.560Z,22.47
2017-04-28T14:53:34.841Z,24.53
2017-04-28T14:56:03.132Z,22.27
2017-04-28T14:58:31.497Z,31.13
2017-04-28T15:00:59.772Z,22.20
2017-04-28T15:03:28.744Z,21.38
2017-04-28T15:05:57.020Z,24.28
2017-04-28T15:08:25.336Z,18.85
2017-04-28T15:10:53.704Z,21.48
2017-04-28T15:13:21.983Z,23.27
2017-04-28T15:15:50.357Z,22.92
2017-04-28T15:18:18.633Z,23.08
2017-04-28T15:20:46.916Z,20.75
2017-04-28T15:23:15.200Z,21.95
2017-04-28T15:25:43.516Z,19.20
2017-04-28T15:28:12.535Z,17.83
2017-04-28T15:30:40.823Z,14.35
2017-04-28T15:33:09.109Z,18.70
2017-04-28T15:35:37.388Z,18.87
2017-04-28T15:38:05.665Z,20.25
2017-04-28T15:40:33.940Z,18.93
2017-04-28T15:43:02.243Z,17.88
2017-04-28T15:45:30.515Z,13.50
2017-04-28T15:47:58.791Z,13.67
2017-04-28T15:50:27.555Z,11.70
2017-04-28T15:52:55.935Z,12.75
2017-04-28T15:55:24.311Z,12.35
2017-04-28T15:57:53.325Z,14.22
2017-04-28T16:00:21.603Z,13.60
2017-04-28T16:02:49.876Z,12.60
2017-04-28T16:05:18.156Z,14.63
2017-04-28T16:07:47.581Z,14.22
2017-04-28T16:10:15.861Z,12.52
2017-04-28T16:12:44.165Z,15.68
2017-04-28T16:15:12.517Z,14.13
2017-04-28T16:17:40.801Z,12.92
2017-04-28T16:20:09.089Z,12.20
2017-04-28T16:22:37.372Z,12.28
2017-04-28T16:25:05.725Z,12.63
2017-04-28T16:27:34.105Z,12.17
2017-04-28T16:30:02.592Z,11.82
2017-04-28T16:32:30.871Z,14.38
2017-04-28T16:34:59.156Z,13.22
2017-04-28T16:37:27.524Z,13.80
2017-04-28T16:39:55.806Z,12.18
2017-04-28T16:42:24.181Z,13.75
2017-04-28T16:44:52.557Z,13.27
2017-04-28T16:47:20.868Z,13.95
2017-04-28T16:49:49.144Z,13.35
2017-04-28T16:52:17.452Z,12.57
2017-04-28T16:54:45.741Z,11.47
2017-04-28T16:57:14.061Z,15.17
2017-04-28T16:59:42.339Z,13.47
2017-04-28T17:02:10.626Z,14.12
2017-04-28T17:04:38.977Z,14.83
2017-04-28T17:07:07.254Z,14.45
2017-04-28T17:09:35.632Z,13.23
2017-04-28T17:12:04.000Z,13.88
2017-04-28T17:14:32.272Z,15.53
2017-04-28T17:17:00.558Z,14.65
2017-04-28T17:19:28.839Z,15.62
2017-04-28T17:21:57.121Z,14.95
2017-04-28T17:24:25.497Z,13.95
2017-04-28T17:26:53.863Z,16.30
2017-04-28T17:29:22.356Z,16.05
2017-04-28T17:31:50.832Z,15.45
2017-04-28T17:34:19.118Z,21.45
2017-04-28T17:36:47.490Z,28.03
2017-04-28T17:39:15.874Z,19.45
2017-04-28T17:41:44.152Z,17.53
2017-04-28T17:44:12.532Z,19.10
2017-04-28T17:46:40.809Z,14.40
2017-04-28T17:49:09.219Z,16.30
2017-04-28T17:51:38.240Z,16.75
2017-04-28T17:54:06.552Z,17.25
2017-04-28T17:56:34.842Z,14.12
2017-04-28T17:59:03.124Z,15.40
2017-04-28T18:01:31.404Z,16.18
2017-04-28T18:03:59.866Z,13.08
2017-04-28T18:06:29.256Z,14.77
2017-04-28T18:08:57.536Z,15.10
2017-04-28T18:11:25.812Z,12.88
2017-04-28T18:13:54.084Z,11.88
2017-04-28T18:16:22.368Z,13.23
2017-04-28T18:18:50.651Z,12.35
2017-04-28T18:21:19.023Z,14.38
2017-04-28T18:23:47.297Z,12.62
2017-04-28T18:26:15.581Z,11.88
2017-04-28T18:28:43.884Z,11.65
2017-04-28T18:31:12.164Z,12.72
2017-04-28T18:33:40.438Z,10.97
2017-04-28T18:36:08.708Z,11.32
2017-04-28T18:38:36.981Z,10.13
2017-04-28T18:41:05.256Z,10.53
2017-04-28T18:43:33.621Z,10.37
2017-04-28T18:46:02.301Z,10.93
2017-04-28T18:48:30.577Z,10.93
2017-04-28T18:50:58.849Z,9.97
2017-04-28T18:53:27.124Z,10.23
2017-04-28T18:55:55.395Z,10.10
2017-04-28T18:58:23.679Z,10.92
2017-04-28T19:00:51.949Z,10.13
2017-04-28T19:03:20.264Z,10.63
2017-04-28T19:05:48.540Z,10.50
2017-04-28T19:08:16.813Z,11.40
2017-04-28T19:10:45.088Z,10.97
2017-04-28T19:13:13.453Z,10.65
2017-04-28T19:15:41.732Z,10.27
2017-04-28T19:18:10.105Z,10.68
2017-04-28T19:20:38.430Z,10.15
2017-04-28T19:23:07.582Z,10.78
2017-04-28T19:25:35.856Z,10.50
2017-04-28T19:28:04.128Z,9.67
2017-04-28T19:30:32.401Z,10.50
2017-04-28T19:33:00.787Z,9.38
2017-04-28T19:35:29.066Z,12.17
2017-04-28T19:37:57.448Z,11.13
2017-04-28T19:40:25.721Z,11.47
2017-04-28T19:42:54.200Z,12.67
2017-04-28T19:45:22.516Z,14.03
2017-04-28T19:47:50.789Z,11.82
2017-04-28T19:50:19.060Z,12.88
2017-04-28T19:52:47.412Z,12.25
2017-04-28T19:55:15.691Z,11.88
2017-04-28T19:57:44.071Z,11.65
2017-04-28T20:00:12.550Z,10.23
2017-04-28T20:02:40.929Z,11.53
2017-04-28T20:05:09.200Z,10.03
2017-04-28T20:07:37.482Z,10.48
2017-04-28T20:10:05.757Z,10.90
2017-04-28T20:12:34.032Z,10.82
2017-04-28T20:15:02.308Z,10.18
2017-04-28T20:17:30.584Z,10.22
2017-04-28T20:19:58.859Z,10.02
2017-04-28T20:22:27.280Z,8.95
2017-04-28T20:24:55.554Z,8.75
2017-04-28T20:27:23.823Z,8.12
2017-04-28T20:29:52.098Z,8.18
2017-04-28T20:32:20.395Z,7.90
2017-04-28T20:34:48.668Z,7.05
2017-04-28T20:37:16.957Z,6.92
2017-04-28T20:39:45.328Z,6.38
2017-04-28T20:42:13.596Z,6.45
2017-04-28T20:44:42.191Z,6.00
2017-04-28T20:47:10.472Z,5.52
2017-04-28T20:49:38.859Z,6.17
2017-04-28T20:52:07.128Z,4.70
2017-04-28T20:54:35.392Z,4.53
2017-04-28T20:57:03.661Z,5.63
2017-04-28T20:59:31.923Z,5.77
2017-04-28T21:02:00.188Z,4.53
2017-04-28T21:04:29.217Z,4.88
2017-04-28T21:06:57.535Z,4.93
2017-04-28T21:09:25.800Z,4.78
2017-04-28T21:11:54.064Z,4.67
2017-04-28T21:14:22.323Z,5.17
2017-04-28T21:16:50.591Z,4.87
2017-04-28T21:19:18.861Z,5.38
2017-04-28T21:21:47.159Z,4.08
2017-04-28T21:24:15.441Z,4.25
2017-04-28T21:26:43.709Z,4.50
2017-04-28T21:29:11.989Z,4.47
2017-04-28T21:31:40.256Z,4.28
2017-04-28T21:34:08.655Z,3.92
2017-04-28T21:36:37.033Z,5.14
2017-04-28T21:39:05.332Z,3.98
2017-04-28T21:41:33.591Z,4.93
2017-04-28T21:44:01.864Z,4.07
2017-04-28T21:46:30.131Z,4.22
2017-04-28T21:48:59.137Z,4.78
2017-04-28T21:51:27.631Z,5.80
2017-04-28T21:53:55.930Z,4.90
2017-04-28T21:56:24.199Z,25.45
2017-04-28T21:58:52.467Z,14.20
2017-04-28T22:01:20.732Z,7.47
2017-04-28T22:03:49.032Z,83.92
2017-04-28T22:06:17.415Z,40.95
2017-04-28T22:08:45.684Z,7.28
2017-04-28T22:11:13.968Z,7.58
2017-04-28T22:13:42.276Z,5.62
2017-04-28T22:16:27.212Z,3.97
2017-04-28T22:18:55.788Z,3.62
2017-04-28T22:21:24.063Z,4.30
2017-04-28T22:23:52.327Z,4.27
2017-04-28T22:26:21.769Z,3.88
2017-04-28T22:28:50.038Z,3.13
2017-04-28T22:31:18.312Z,3.23
2017-04-28T22:33:47.352Z,3.78
2017-04-28T22:36:15.731Z,3.33
2017-04-28T22:38:43.997Z,3.58
2017-04-28T22:41:12.264Z,3.87
2017-04-28T22:43:40.532Z,3.62
2017-04-28T22:46:08.939Z,3.35
2017-04-28T22:48:37.225Z,4.37
2017-04-28T22:51:05.497Z,3.32
2017-04-28T22:53:33.979Z,3.95
2017-04-28T22:56:02.248Z,3.48
2017-04-28T22:58:30.532Z,3.40
2017-04-28T23:00:58.796Z,3.53
2017-04-28T23:03:27.089Z,3.78
2017-04-28T23:05:55.352Z,3.62
2017-04-28T23:08:23.633Z,4.08
2017-04-28T23:10:51.908Z,3.87
2017-04-28T23:13:20.172Z,3.90
2017-04-28T23:15:48.436Z,3.92
2017-04-28T23:18:16.748Z,3.42
2017-04-28T23:20:45.224Z,3.02
2017-04-28T23:23:13.510Z,3.48
2017-04-28T23:25:41.812Z,4.00
2017-04-28T23:28:10.185Z,3.77
2017-04-28T23:30:38.536Z,3.35
2017-04-28T23:33:06.816Z,4.63
2017-04-28T23:35:35.998Z,4.55
2017-04-28T23:38:04.297Z,4.72
2017-04-28T23:40:32.560Z,4.07
2017-04-28T23:43:00.864Z,5.03
2017-04-28T23:45:29.133Z,4.18
2017-04-28T23:47:57.505Z,8.53
2017-04-28T23:50:25.775Z,6.42
2017-04-28T23:52:54.057Z,8.97
2017-04-28T23:55:22.320Z,5.92
2017-04-28T23:57:50.633Z,7.18
